sensor_id;sensor_type;location;lat;lon;timestamp;temperature;humidity
3866;DHT22;1948;53.250;10.412;2023-11-21T00:01:33;11.10;99.90
3866;DHT22;1948;53.250;10.412;2023-11-21T00:04:06;11.20;99.90
3866;DHT22;1948;53.250;10.412;2023-11-21T00:06:34;11.10;99.90
3866;DHT22;1948;53.250;10.412;2023-11-21T00:09:02;11.10;99.90
3866;DHT22;1948;53.250;10.412;2023-11-21T00:11:29;11.10;99.90
3866;DHT22;1948;53.250;10.412;2023-11-21T00:14:01;11.20;99.90
3866;DHT22;1948;53.250;10.412;2023-11-21T00:16:29;11.10;99.90
3866;DHT22;1948;53.250;10.412;2023-11-21T00:18:59;11.00;99.90
3866;DHT22;1948;53.250;10.412;2023-11-21T00:21:29;10.90;99.90
3866;DHT22;1948;53.250;10.412;2023-11-21T00:23:56;10.80;99.90
3866;DHT22;1948;53.250;10.412;2023-11-21T00:26:26;10.60;99.90
3866;DHT22;1948;53.250;10.412;2023-11-21T00:28:55;10.40;99.90
3866;DHT22;1948;53.250;10.412;2023-11-21T00:31:27;10.40;99.90
3866;DHT22;1948;53.250;10.412;2023-11-21T00:33:55;10.30;99.90
3866;DHT22;1948;53.250;10.412;2023-11-21T00:36:24;10.30;99.90
3866;DHT22;1948;53.250;10.412;2023-11-21T00:38:54;10.20;99.90
3866;DHT22;1948;53.250;10.412;2023-11-21T00:41:25;10.20;99.90
3866;DHT22;1948;53.250;10.412;2023-11-21T00:43:58;10.10;99.90
3866;DHT22;1948;53.250;10.412;2023-11-21T00:46:28;10.20;99.90
3866;DHT22;1948;53.250;10.412;2023-11-21T00:48:56;10.10;99.90
3866;DHT22;1948;53.250;10.412;2023-11-21T00:51:26;10.10;99.90
3866;DHT22;1948;53.250;10.412;2023-11-21T00:53:53;10.10;99.90
3866;DHT22;1948;53.250;10.412;2023-11-21T00:56:20;10.00;99.90
3866;DHT22;1948;53.250;10.412;2023-11-21T00:58:49;9.90;99.90
3866;DHT22;1948;53.250;10.412;2023-11-21T01:01:19;9.80;99.90
3866;DHT22;1948;53.250;10.412;2023-11-21T01:03:50;9.80;99.90
3866;DHT22;1948;53.250;10.412;2023-11-21T01:06:17;9.80;99.90
3866;DHT22;1948;53.250;10.412;2023-11-21T01:08:44;9.80;99.90
3866;DHT22;1948;53.250;10.412;2023-11-21T01:11:12;9.80;99.90
3866;DHT22;1948;53.250;10.412;2023-11-21T01:13:42;9.80;99.90
3866;DHT22;1948;53.250;10.412;2023-11-21T01:16:09;9.80;99.90
3866;DHT22;1948;53.250;10.412;2023-11-21T01:18:41;9.90;99.90
3866;DHT22;1948;53.250;10.412;2023-11-21T01:21:08;9.80;99.90
3866;DHT22;1948;53.250;10.412;2023-11-21T01:23:38;9.80;99.90
3866;DHT22;1948;53.250;10.412;2023-11-21T01:26:05;9.60;99.90
3866;DHT22;1948;53.250;10.412;2023-11-21T01:28:36;9.50;99.90
3866;DHT22;1948;53.250;10.412;2023-11-21T01:31:03;9.40;99.90
3866;DHT22;1948;53.250;10.412;2023-11-21T01:33:33;9.40;99.90
3866;DHT22;1948;53.250;10.412;2023-11-21T01:36:00;9.40;99.90
3866;DHT22;1948;53.250;10.412;2023-11-21T01:38:27;9.40;99.90
3866;DHT22;1948;53.250;10.412;2023-11-21T01:40:57;9.40;99.90
3866;DHT22;1948;53.250;10.412;2023-11-21T01:43:28;9.30;99.90
3866;DHT22;1948;53.250;10.412;2023-11-21T01:45:58;9.40;99.90
3866;DHT22;1948;53.250;10.412;2023-11-21T01:48:25;9.40;99.90
3866;DHT22;1948;53.250;10.412;2023-11-21T01:50:56;9.30;99.90
3866;DHT22;1948;53.250;10.412;2023-11-21T01:53:27;9.20;99.90
3866;DHT22;1948;53.250;10.412;2023-11-21T01:55:59;9.10;99.90
3866;DHT22;1948;53.250;10.412;2023-11-21T01:58:30;9.10;99.90
3866;DHT22;1948;53.250;10.412;2023-11-21T02:00:59;9.00;99.90
3866;DHT22;1948;53.250;10.412;2023-11-21T02:03:26;9.00;99.90
3866;DHT22;1948;53.250;10.412;2023-11-21T02:05:53;9.00;99.90
3866;DHT22;1948;53.250;10.412;2023-11-21T02:08:21;8.90;99.90
3866;DHT22;1948;53.250;10.412;2023-11-21T02:10:50;9.00;99.90
3866;DHT22;1948;53.250;10.412;2023-11-21T02:13:17;8.90;99.90
3866;DHT22;1948;53.250;10.412;2023-11-21T02:15:47;8.90;99.90
3866;DHT22;1948;53.250;10.412;2023-11-21T02:18:19;8.80;99.90
3866;DHT22;1948;53.250;10.412;2023-11-21T02:20:46;8.80;99.90
3866;DHT22;1948;53.250;10.412;2023-11-21T02:23:13;8.80;99.90
3866;DHT22;1948;53.250;10.412;2023-11-21T02:25:44;8.80;99.90
3866;DHT22;1948;53.250;10.412;2023-11-21T02:28:15;8.80;99.90
3866;DHT22;1948;53.250;10.412;2023-11-21T02:30:52;8.70;99.90
3866;DHT22;1948;53.250;10.412;2023-11-21T02:33:23;8.70;99.90
3866;DHT22;1948;53.250;10.412;2023-11-21T02:35:50;8.60;99.90
3866;DHT22;1948;53.250;10.412;2023-11-21T02:38:21;8.60;99.90
3866;DHT22;1948;53.250;10.412;2023-11-21T02:40:51;8.60;99.90
3866;DHT22;1948;53.250;10.412;2023-11-21T02:43:18;8.60;99.90
3866;DHT22;1948;53.250;10.412;2023-11-21T02:45:45;8.50;99.90
3866;DHT22;1948;53.250;10.412;2023-11-21T02:48:13;8.50;99.90
3866;DHT22;1948;53.250;10.412;2023-11-21T02:50:42;8.50;99.90
3866;DHT22;1948;53.250;10.412;2023-11-21T02:53:10;8.50;99.90
3866;DHT22;1948;53.250;10.412;2023-11-21T02:55:37;8.50;99.90
3866;DHT22;1948;53.250;10.412;2023-11-21T02:58:07;8.50;99.90
3866;DHT22;1948;53.250;10.412;2023-11-21T03:00:35;8.60;99.90
3866;DHT22;1948;53.250;10.412;2023-11-21T03:03:04;8.60;99.90
3866;DHT22;1948;53.250;10.412;2023-11-21T03:05:31;8.60;99.90
3866;DHT22;1948;53.250;10.412;2023-11-21T03:08:02;8.50;99.90
3866;DHT22;1948;53.250;10.412;2023-11-21T03:10:29;8.50;99.90
3866;DHT22;1948;53.250;10.412;2023-11-21T03:12:56;8.50;99.90
3866;DHT22;1948;53.250;10.412;2023-11-21T03:15:24;8.60;99.90
3866;DHT22;1948;53.250;10.412;2023-11-21T03:17:54;8.60;99.90
3866;DHT22;1948;53.250;10.412;2023-11-21T03:20:21;8.60;99.90
3866;DHT22;1948;53.250;10.412;2023-11-21T03:22:52;8.70;99.90
3866;DHT22;1948;53.250;10.412;2023-11-21T03:25:21;8.70;99.90
3866;DHT22;1948;53.250;10.412;2023-11-21T03:27:53;8.70;99.90
3866;DHT22;1948;53.250;10.412;2023-11-21T03:30:20;8.70;99.90
3866;DHT22;1948;53.250;10.412;2023-11-21T03:32:48;8.70;99.90
3866;DHT22;1948;53.250;10.412;2023-11-21T03:35:15;8.70;99.90
3866;DHT22;1948;53.250;10.412;2023-11-21T03:37:42;8.70;99.90
3866;DHT22;1948;53.250;10.412;2023-11-21T03:40:10;8.70;99.90
3866;DHT22;1948;53.250;10.412;2023-11-21T03:42:39;8.70;99.90
3866;DHT22;1948;53.250;10.412;2023-11-21T03:45:07;8.70;99.90
3866;DHT22;1948;53.250;10.412;2023-11-21T03:47:41;8.60;99.90
3866;DHT22;1948;53.250;10.412;2023-11-21T03:50:11;8.60;99.90
3866;DHT22;1948;53.250;10.412;2023-11-21T03:52:41;8.50;99.90
3866;DHT22;1948;53.250;10.412;2023-11-21T03:55:11;8.50;99.90
3866;DHT22;1948;53.250;10.412;2023-11-21T03:57:41;8.40;99.90
3866;DHT22;1948;53.250;10.412;2023-11-21T04:00:11;8.50;99.90
3866;DHT22;1948;53.250;10.412;2023-11-21T04:02:39;8.60;99.90
3866;DHT22;1948;53.250;10.412;2023-11-21T04:05:07;8.50;99.90
3866;DHT22;1948;53.250;10.412;2023-11-21T04:07:36;8.50;99.90
3866;DHT22;1948;53.250;10.412;2023-11-21T04:10:08;8.50;99.90
3866;DHT22;1948;53.250;10.412;2023-11-21T04:12:36;8.50;99.90
3866;DHT22;1948;53.250;10.412;2023-11-21T04:15:06;8.50;99.90
3866;DHT22;1948;53.250;10.412;2023-11-21T04:17:36;8.50;99.90
3866;DHT22;1948;53.250;10.412;2023-11-21T04:20:06;8.50;99.90
3866;DHT22;1948;53.250;10.412;2023-11-21T04:22:41;8.50;99.90
3866;DHT22;1948;53.250;10.412;2023-11-21T04:25:15;8.50;99.90
3866;DHT22;1948;53.250;10.412;2023-11-21T04:27:44;8.50;99.90
3866;DHT22;1948;53.250;10.412;2023-11-21T04:30:12;8.50;99.90
3866;DHT22;1948;53.250;10.412;2023-11-21T04:32:41;8.50;99.90
3866;DHT22;1948;53.250;10.412;2023-11-21T04:35:11;8.60;99.90
3866;DHT22;1948;53.250;10.412;2023-11-21T04:37:40;8.50;99.90
3866;DHT22;1948;53.250;10.412;2023-11-21T04:40:08;8.50;99.90
3866;DHT22;1948;53.250;10.412;2023-11-21T04:42:36;8.50;99.90
3866;DHT22;1948;53.250;10.412;2023-11-21T04:45:05;8.60;99.90
3866;DHT22;1948;53.250;10.412;2023-11-21T04:47:36;8.60;99.90
3866;DHT22;1948;53.250;10.412;2023-11-21T04:50:04;8.60;99.90
3866;DHT22;1948;53.250;10.412;2023-11-21T04:52:32;8.60;99.90
3866;DHT22;1948;53.250;10.412;2023-11-21T04:55:00;8.50;99.90
3866;DHT22;1948;53.250;10.412;2023-11-21T04:57:29;8.50;99.90
3866;DHT22;1948;53.250;10.412;2023-11-21T04:59:56;8.50;99.90
3866;DHT22;1948;53.250;10.412;2023-11-21T05:02:24;8.50;99.90
3866;DHT22;1948;53.250;10.412;2023-11-21T05:05:04;8.50;99.90
3866;DHT22;1948;53.250;10.412;2023-11-21T05:07:36;8.40;99.90
3866;DHT22;1948;53.250;10.412;2023-11-21T05:10:07;8.40;99.90
3866;DHT22;1948;53.250;10.412;2023-11-21T05:12:42;8.50;99.90
3866;DHT22;1948;53.250;10.412;2023-11-21T05:15:09;8.50;99.90
3866;DHT22;1948;53.250;10.412;2023-11-21T05:17:41;8.50;99.90
3866;DHT22;1948;53.250;10.412;2023-11-21T05:20:13;8.50;99.90
3866;DHT22;1948;53.250;10.412;2023-11-21T05:22:45;8.40;99.90
3866;DHT22;1948;53.250;10.412;2023-11-21T05:25:12;8.30;99.90
3866;DHT22;1948;53.250;10.412;2023-11-21T05:27:39;8.30;99.90
3866;DHT22;1948;53.250;10.412;2023-11-21T05:30:07;8.20;99.90
3866;DHT22;1948;53.250;10.412;2023-11-21T05:32:40;8.30;99.90
3866;DHT22;1948;53.250;10.412;2023-11-21T05:35:13;8.30;99.90
3866;DHT22;1948;53.250;10.412;2023-11-21T05:37:44;8.30;99.90
3866;DHT22;1948;53.250;10.412;2023-11-21T05:40:14;8.20;99.90
3866;DHT22;1948;53.250;10.412;2023-11-21T05:42:41;8.20;99.90
3866;DHT22;1948;53.250;10.412;2023-11-21T05:45:09;8.20;99.90
3866;DHT22;1948;53.250;10.412;2023-11-21T05:47:47;8.30;99.90
3866;DHT22;1948;53.250;10.412;2023-11-21T05:50:17;8.20;99.90
3866;DHT22;1948;53.250;10.412;2023-11-21T05:52:46;8.20;99.90
3866;DHT22;1948;53.250;10.412;2023-11-21T05:55:14;8.30;99.90
3866;DHT22;1948;53.250;10.412;2023-11-21T05:57:43;8.30;99.90
3866;DHT22;1948;53.250;10.412;2023-11-21T06:00:14;8.30;99.90
3866;DHT22;1948;53.250;10.412;2023-11-21T06:02:53;8.30;99.90
3866;DHT22;1948;53.250;10.412;2023-11-21T06:05:23;8.30;99.90
3866;DHT22;1948;53.250;10.412;2023-11-21T06:07:53;8.30;99.90
3866;DHT22;1948;53.250;10.412;2023-11-21T06:10:24;8.30;99.90
3866;DHT22;1948;53.250;10.412;2023-11-21T06:12:52;8.20;99.90
3866;DHT22;1948;53.250;10.412;2023-11-21T06:15:22;8.30;99.90
3866;DHT22;1948;53.250;10.412;2023-11-21T06:17:51;8.20;99.90
3866;DHT22;1948;53.250;10.412;2023-11-21T06:20:22;8.10;99.90
3866;DHT22;1948;53.250;10.412;2023-11-21T06:22:50;8.10;99.90
3866;DHT22;1948;53.250;10.412;2023-11-21T06:25:18;8.10;99.90
3866;DHT22;1948;53.250;10.412;2023-11-21T06:27:47;8.10;99.90
3866;DHT22;1948;53.250;10.412;2023-11-21T06:30:15;8.10;99.90
3866;DHT22;1948;53.250;10.412;2023-11-21T06:32:43;8.10;99.90
3866;DHT22;1948;53.250;10.412;2023-11-21T06:35:17;8.20;99.90
3866;DHT22;1948;53.250;10.412;2023-11-21T06:37:44;8.20;99.90
3866;DHT22;1948;53.250;10.412;2023-11-21T06:40:19;8.30;99.90
3866;DHT22;1948;53.250;10.412;2023-11-21T06:42:47;8.30;99.90
3866;DHT22;1948;53.250;10.412;2023-11-21T06:45:16;8.30;99.90
3866;DHT22;1948;53.250;10.412;2023-11-21T06:47:43;8.30;99.90
3866;DHT22;1948;53.250;10.412;2023-11-21T06:50:14;8.20;99.90
3866;DHT22;1948;53.250;10.412;2023-11-21T06:52:46;8.30;99.90
3866;DHT22;1948;53.250;10.412;2023-11-21T06:55:13;8.30;99.90
3866;DHT22;1948;53.250;10.412;2023-11-21T06:57:41;8.40;99.90
3866;DHT22;1948;53.250;10.412;2023-11-21T07:00:12;8.30;99.90
3866;DHT22;1948;53.250;10.412;2023-11-21T07:02:40;8.30;99.90
3866;DHT22;1948;53.250;10.412;2023-11-21T07:05:10;8.30;99.90
3866;DHT22;1948;53.250;10.412;2023-11-21T07:07:41;8.30;99.90
3866;DHT22;1948;53.250;10.412;2023-11-21T07:10:08;8.30;99.90
3866;DHT22;1948;53.250;10.412;2023-11-21T07:12:35;8.30;99.90
3866;DHT22;1948;53.250;10.412;2023-11-21T07:15:07;8.50;99.90
3866;DHT22;1948;53.250;10.412;2023-11-21T07:17:40;8.40;99.90
3866;DHT22;1948;53.250;10.412;2023-11-21T07:20:09;8.30;99.90
3866;DHT22;1948;53.250;10.412;2023-11-21T07:22:38;8.30;99.90
3866;DHT22;1948;53.250;10.412;2023-11-21T07:25:07;8.30;99.90
3866;DHT22;1948;53.250;10.412;2023-11-21T07:27:38;8.30;99.90
3866;DHT22;1948;53.250;10.412;2023-11-21T07:30:06;8.30;99.90
3866;DHT22;1948;53.250;10.412;2023-11-21T07:32:37;8.30;99.90
3866;DHT22;1948;53.250;10.412;2023-11-21T07:35:07;8.30;99.90
3866;DHT22;1948;53.250;10.412;2023-11-21T07:37:35;8.30;99.90
3866;DHT22;1948;53.250;10.412;2023-11-21T07:40:04;8.40;99.90
3866;DHT22;1948;53.250;10.412;2023-11-21T07:42:38;8.40;99.90
3866;DHT22;1948;53.250;10.412;2023-11-21T07:45:06;8.40;99.90
3866;DHT22;1948;53.250;10.412;2023-11-21T07:47:34;8.50;99.90
3866;DHT22;1948;53.250;10.412;2023-11-21T07:50:05;8.60;99.90
3866;DHT22;1948;53.250;10.412;2023-11-21T07:52:34;8.50;99.90
3866;DHT22;1948;53.250;10.412;2023-11-21T07:55:02;8.60;99.90
3866;DHT22;1948;53.250;10.412;2023-11-21T07:57:34;8.50;99.90
3866;DHT22;1948;53.250;10.412;2023-11-21T08:00:05;8.40;99.90
3866;DHT22;1948;53.250;10.412;2023-11-21T08:02:36;8.50;99.90
3866;DHT22;1948;53.250;10.412;2023-11-21T08:05:03;8.50;99.90
3866;DHT22;1948;53.250;10.412;2023-11-21T08:07:30;8.50;99.90
3866;DHT22;1948;53.250;10.412;2023-11-21T08:10:00;8.50;99.90
3866;DHT22;1948;53.250;10.412;2023-11-21T08:12:27;8.50;99.90
3866;DHT22;1948;53.250;10.412;2023-11-21T08:14:54;8.60;99.90
3866;DHT22;1948;53.250;10.412;2023-11-21T08:17:21;8.40;99.90
3866;DHT22;1948;53.250;10.412;2023-11-21T08:19:50;8.40;99.90
3866;DHT22;1948;53.250;10.412;2023-11-21T08:22:18;8.40;99.90
3866;DHT22;1948;53.250;10.412;2023-11-21T08:24:45;8.40;99.90
3866;DHT22;1948;53.250;10.412;2023-11-21T08:27:13;8.40;99.90
3866;DHT22;1948;53.250;10.412;2023-11-21T08:29:43;8.40;99.90
3866;DHT22;1948;53.250;10.412;2023-11-21T08:32:10;8.50;99.90
3866;DHT22;1948;53.250;10.412;2023-11-21T08:34:37;8.60;99.90
3866;DHT22;1948;53.250;10.412;2023-11-21T08:37:07;8.50;99.90
3866;DHT22;1948;53.250;10.412;2023-11-21T08:39:34;8.60;99.90
3866;DHT22;1948;53.250;10.412;2023-11-21T08:42:01;8.60;99.90
3866;DHT22;1948;53.250;10.412;2023-11-21T08:44:31;8.60;99.90
3866;DHT22;1948;53.250;10.412;2023-11-21T08:47:01;8.60;99.90
3866;DHT22;1948;53.250;10.412;2023-11-21T08:49:34;8.70;99.90
3866;DHT22;1948;53.250;10.412;2023-11-21T08:52:01;8.70;99.90
3866;DHT22;1948;53.250;10.412;2023-11-21T08:54:31;8.80;99.90
3866;DHT22;1948;53.250;10.412;2023-11-21T08:57:04;8.90;99.90
3866;DHT22;1948;53.250;10.412;2023-11-21T08:59:31;8.90;99.90
3866;DHT22;1948;53.250;10.412;2023-11-21T09:01:59;8.90;99.90
3866;DHT22;1948;53.250;10.412;2023-11-21T09:04:29;8.90;99.90
3866;DHT22;1948;53.250;10.412;2023-11-21T09:06:58;9.00;99.90
3866;DHT22;1948;53.250;10.412;2023-11-21T09:09:27;9.00;99.90
3866;DHT22;1948;53.250;10.412;2023-11-21T09:11:57;9.00;99.90
3866;DHT22;1948;53.250;10.412;2023-11-21T09:14:27;9.00;99.90
3866;DHT22;1948;53.250;10.412;2023-11-21T09:16:55;9.10;99.90
3866;DHT22;1948;53.250;10.412;2023-11-21T09:19:23;9.10;99.90
3866;DHT22;1948;53.250;10.412;2023-11-21T09:21:51;9.20;99.90
3866;DHT22;1948;53.250;10.412;2023-11-21T09:24:18;9.20;99.90
3866;DHT22;1948;53.250;10.412;2023-11-21T09:26:45;9.30;99.90
3866;DHT22;1948;53.250;10.412;2023-11-21T09:29:13;9.40;99.90
3866;DHT22;1948;53.250;10.412;2023-11-21T09:31:40;9.50;99.90
3866;DHT22;1948;53.250;10.412;2023-11-21T09:34:09;9.60;99.90
3866;DHT22;1948;53.250;10.412;2023-11-21T09:36:40;9.70;99.90
3866;DHT22;1948;53.250;10.412;2023-11-21T09:39:10;9.70;99.90
3866;DHT22;1948;53.250;10.412;2023-11-21T09:42:17;9.80;99.90
3866;DHT22;1948;53.250;10.412;2023-11-21T09:47:54;9.80;99.90
3866;DHT22;1948;53.250;10.412;2023-11-21T09:50:25;9.90;99.90
3866;DHT22;1948;53.250;10.412;2023-11-21T09:53:18;9.80;99.90
3866;DHT22;1948;53.250;10.412;2023-11-21T09:55:50;9.90;99.90
3866;DHT22;1948;53.250;10.412;2023-11-21T09:58:20;10.10;99.90
3866;DHT22;1948;53.250;10.412;2023-11-21T10:00:55;10.20;99.90
3866;DHT22;1948;53.250;10.412;2023-11-21T10:03:23;10.30;99.90
3866;DHT22;1948;53.250;10.412;2023-11-21T10:05:51;10.40;99.90
3866;DHT22;1948;53.250;10.412;2023-11-21T10:08:22;10.50;99.90
3866;DHT22;1948;53.250;10.412;2023-11-21T10:10:53;10.60;99.90
3866;DHT22;1948;53.250;10.412;2023-11-21T10:13:23;10.70;99.90
3866;DHT22;1948;53.250;10.412;2023-11-21T10:15:51;10.70;99.90
3866;DHT22;1948;53.250;10.412;2023-11-21T10:18:19;10.70;99.90
3866;DHT22;1948;53.250;10.412;2023-11-21T10:20:51;10.60;99.90
3866;DHT22;1948;53.250;10.412;2023-11-21T10:23:22;10.50;99.90
3866;DHT22;1948;53.250;10.412;2023-11-21T10:25:51;10.40;99.90
3866;DHT22;1948;53.250;10.412;2023-11-21T10:28:20;10.40;99.90
3866;DHT22;1948;53.250;10.412;2023-11-21T10:30:51;10.40;99.90
3866;DHT22;1948;53.250;10.412;2023-11-21T10:33:27;10.30;99.90
3866;DHT22;1948;53.250;10.412;2023-11-21T10:35:57;10.30;99.90
3866;DHT22;1948;53.250;10.412;2023-11-21T10:38:26;10.20;99.90
3866;DHT22;1948;53.250;10.412;2023-11-21T10:40:55;10.20;99.90
3866;DHT22;1948;53.250;10.412;2023-11-21T10:43:25;10.30;99.90
3866;DHT22;1948;53.250;10.412;2023-11-21T10:45:57;10.20;99.90
3866;DHT22;1948;53.250;10.412;2023-11-21T10:48:27;10.00;99.90
3866;DHT22;1948;53.250;10.412;2023-11-21T10:50:54;10.00;99.90
3866;DHT22;1948;53.250;10.412;2023-11-21T10:53:23;10.10;99.90
3866;DHT22;1948;53.250;10.412;2023-11-21T10:55:50;10.10;99.90
3866;DHT22;1948;53.250;10.412;2023-11-21T10:58:28;10.30;99.90
3866;DHT22;1948;53.250;10.412;2023-11-21T11:01:00;10.30;99.90
3866;DHT22;1948;53.250;10.412;2023-11-21T11:03:31;10.50;99.90
3866;DHT22;1948;53.250;10.412;2023-11-21T11:06:00;10.60;99.90
3866;DHT22;1948;53.250;10.412;2023-11-21T11:08:27;10.40;99.90
3866;DHT22;1948;53.250;10.412;2023-11-21T11:10:55;10.20;99.90
3866;DHT22;1948;53.250;10.412;2023-11-21T11:13:23;10.00;99.90
3866;DHT22;1948;53.250;10.412;2023-11-21T11:15:59;9.80;99.90
3866;DHT22;1948;53.250;10.412;2023-11-21T11:18:29;9.80;99.90
3866;DHT22;1948;53.250;10.412;2023-11-21T11:24:15;10.00;99.90
3866;DHT22;1948;53.250;10.412;2023-11-21T11:32:49;10.60;99.90
3866;DHT22;1948;53.250;10.412;2023-11-21T11:35:35;10.70;99.90
3866;DHT22;1948;53.250;10.412;2023-11-21T11:38:09;10.80;99.90
3866;DHT22;1948;53.250;10.412;2023-11-21T11:40:41;10.90;99.90
3866;DHT22;1948;53.250;10.412;2023-11-21T11:43:12;11.00;99.90
3866;DHT22;1948;53.250;10.412;2023-11-21T11:45:43;11.00;99.90
3866;DHT22;1948;53.250;10.412;2023-11-21T11:48:13;10.90;99.90
3866;DHT22;1948;53.250;10.412;2023-11-21T11:51:03;10.70;99.90
3866;DHT22;1948;53.250;10.412;2023-11-21T11:53:42;10.60;99.90
3866;DHT22;1948;53.250;10.412;2023-11-21T11:59:00;10.20;99.90
3866;DHT22;1948;53.250;10.412;2023-11-21T12:01:36;10.00;99.90
3866;DHT22;1948;53.250;10.412;2023-11-21T12:06:53;9.80;99.90
3866;DHT22;1948;53.250;10.412;2023-11-21T12:09:22;9.70;99.90
3866;DHT22;1948;53.250;10.412;2023-11-21T12:11:53;9.70;99.90
3866;DHT22;1948;53.250;10.412;2023-11-21T12:14:23;9.70;99.90
3866;DHT22;1948;53.250;10.412;2023-11-21T12:16:50;9.60;99.90
3866;DHT22;1948;53.250;10.412;2023-11-21T12:19:19;9.60;99.90
3866;DHT22;1948;53.250;10.412;2023-11-21T12:21:48;9.60;99.90
3866;DHT22;1948;53.250;10.412;2023-11-21T12:24:17;9.50;99.90
3866;DHT22;1948;53.250;10.412;2023-11-21T12:26:46;9.50;99.90
3866;DHT22;1948;53.250;10.412;2023-11-21T12:29:15;9.40;99.90
3866;DHT22;1948;53.250;10.412;2023-11-21T12:31:45;9.40;99.90
3866;DHT22;1948;53.250;10.412;2023-11-21T12:34:16;9.30;99.90
3866;DHT22;1948;53.250;10.412;2023-11-21T12:36:48;9.30;99.90
3866;DHT22;1948;53.250;10.412;2023-11-21T12:39:16;9.30;99.90
3866;DHT22;1948;53.250;10.412;2023-11-21T12:41:44;9.20;99.90
3866;DHT22;1948;53.250;10.412;2023-11-21T12:44:12;9.30;99.90
3866;DHT22;1948;53.250;10.412;2023-11-21T12:46:42;9.40;99.90
3866;DHT22;1948;53.250;10.412;2023-11-21T12:49:12;9.50;99.90
3866;DHT22;1948;53.250;10.412;2023-11-21T12:51:46;9.60;99.90
3866;DHT22;1948;53.250;10.412;2023-11-21T12:54:15;9.60;99.90
3866;DHT22;1948;53.250;10.412;2023-11-21T12:56:45;9.50;99.90
3866;DHT22;1948;53.250;10.412;2023-11-21T12:59:15;9.50;99.90
3866;DHT22;1948;53.250;10.412;2023-11-21T13:01:44;9.40;99.90
3866;DHT22;1948;53.250;10.412;2023-11-21T13:04:18;9.40;99.90
3866;DHT22;1948;53.250;10.412;2023-11-21T13:06:45;9.40;99.90
3866;DHT22;1948;53.250;10.412;2023-11-21T13:09:15;9.30;99.90
3866;DHT22;1948;53.250;10.412;2023-11-21T13:11:51;9.10;99.90
3866;DHT22;1948;53.250;10.412;2023-11-21T13:14:30;9.10;99.90
3866;DHT22;1948;53.250;10.412;2023-11-21T13:16:58;9.20;99.90
3866;DHT22;1948;53.250;10.412;2023-11-21T13:19:26;9.10;99.90
3866;DHT22;1948;53.250;10.412;2023-11-21T13:21:56;9.10;99.90
3866;DHT22;1948;53.250;10.412;2023-11-21T13:24:25;9.10;99.90
3866;DHT22;1948;53.250;10.412;2023-11-21T13:26:54;9.00;99.90
3866;DHT22;1948;53.250;10.412;2023-11-21T13:29:26;9.00;99.90
3866;DHT22;1948;53.250;10.412;2023-11-21T13:31:54;8.90;99.90
3866;DHT22;1948;53.250;10.412;2023-11-21T13:34:22;8.90;99.90
3866;DHT22;1948;53.250;10.412;2023-11-21T13:37:00;8.90;99.90
3866;DHT22;1948;53.250;10.412;2023-11-21T13:39:32;9.00;99.90
3866;DHT22;1948;53.250;10.412;2023-11-21T13:42:01;9.00;99.90
3866;DHT22;1948;53.250;10.412;2023-11-21T13:44:30;9.00;99.90
3866;DHT22;1948;53.250;10.412;2023-11-21T13:47:04;9.10;99.90
3866;DHT22;1948;53.250;10.412;2023-11-21T13:49:33;9.10;99.90
3866;DHT22;1948;53.250;10.412;2023-11-21T13:52:07;9.20;99.90
3866;DHT22;1948;53.250;10.412;2023-11-21T13:54:34;9.10;99.90
3866;DHT22;1948;53.250;10.412;2023-11-21T13:57:01;9.20;99.90
3866;DHT22;1948;53.250;10.412;2023-11-21T13:59:30;9.10;99.90
3866;DHT22;1948;53.250;10.412;2023-11-21T14:01:58;9.10;99.90
3866;DHT22;1948;53.250;10.412;2023-11-21T14:04:43;9.00;99.90
3866;DHT22;1948;53.250;10.412;2023-11-21T14:07:20;9.00;99.90
3866;DHT22;1948;53.250;10.412;2023-11-21T14:09:59;9.00;99.90
3866;DHT22;1948;53.250;10.412;2023-11-21T14:12:27;9.00;99.90
3866;DHT22;1948;53.250;10.412;2023-11-21T14:15:05;8.90;99.90
3866;DHT22;1948;53.250;10.412;2023-11-21T14:17:34;8.80;99.90
3866;DHT22;1948;53.250;10.412;2023-11-21T14:20:07;8.80;99.90
3866;DHT22;1948;53.250;10.412;2023-11-21T14:22:42;8.80;99.90
3866;DHT22;1948;53.250;10.412;2023-11-21T14:25:11;8.70;99.90
3866;DHT22;1948;53.250;10.412;2023-11-21T14:27:39;8.70;99.90
3866;DHT22;1948;53.250;10.412;2023-11-21T14:30:07;8.70;99.90
3866;DHT22;1948;53.250;10.412;2023-11-21T14:32:37;8.70;99.90
3866;DHT22;1948;53.250;10.412;2023-11-21T14:35:05;8.70;99.90
3866;DHT22;1948;53.250;10.412;2023-11-21T14:37:34;8.70;99.90
3866;DHT22;1948;53.250;10.412;2023-11-21T14:40:05;8.70;99.90
3866;DHT22;1948;53.250;10.412;2023-11-21T14:42:34;8.70;99.90
3866;DHT22;1948;53.250;10.412;2023-11-21T14:45:06;8.70;99.90
3866;DHT22;1948;53.250;10.412;2023-11-21T14:47:39;8.70;99.90
3866;DHT22;1948;53.250;10.412;2023-11-21T14:50:13;8.70;99.90
3866;DHT22;1948;53.250;10.412;2023-11-21T14:53:11;8.70;99.90
3866;DHT22;1948;53.250;10.412;2023-11-21T14:55:44;8.70;99.90
3866;DHT22;1948;53.250;10.412;2023-11-21T14:58:26;8.70;99.90
3866;DHT22;1948;53.250;10.412;2023-11-21T15:00:55;8.60;99.90
3866;DHT22;1948;53.250;10.412;2023-11-21T15:03:28;8.70;99.90
3866;DHT22;1948;53.250;10.412;2023-11-21T15:06:01;8.60;99.90
3866;DHT22;1948;53.250;10.412;2023-11-21T15:08:52;8.70;99.90
3866;DHT22;1948;53.250;10.412;2023-11-21T15:11:35;8.70;99.90
3866;DHT22;1948;53.250;10.412;2023-11-21T15:14:04;8.70;99.90
3866;DHT22;1948;53.250;10.412;2023-11-21T15:16:38;8.70;99.90
3866;DHT22;1948;53.250;10.412;2023-11-21T15:19:08;8.60;99.90
3866;DHT22;1948;53.250;10.412;2023-11-21T15:21:45;8.60;99.90
3866;DHT22;1948;53.250;10.412;2023-11-21T15:24:17;8.50;99.90
3866;DHT22;1948;53.250;10.412;2023-11-21T15:26:44;8.50;99.90
3866;DHT22;1948;53.250;10.412;2023-11-21T15:29:12;8.40;99.90
3866;DHT22;1948;53.250;10.412;2023-11-21T15:31:40;8.40;99.90
3866;DHT22;1948;53.250;10.412;2023-11-21T15:34:12;8.40;99.90
3866;DHT22;1948;53.250;10.412;2023-11-21T15:36:44;8.40;99.90
3866;DHT22;1948;53.250;10.412;2023-11-21T15:39:11;8.40;99.90
3866;DHT22;1948;53.250;10.412;2023-11-21T15:41:39;8.40;99.90
3866;DHT22;1948;53.250;10.412;2023-11-21T15:44:09;8.40;99.90
3866;DHT22;1948;53.250;10.412;2023-11-21T15:46:38;8.40;99.90
3866;DHT22;1948;53.250;10.412;2023-11-21T15:49:10;8.30;99.90
3866;DHT22;1948;53.250;10.412;2023-11-21T15:51:43;8.40;99.90
3866;DHT22;1948;53.250;10.412;2023-11-21T15:54:20;8.30;99.90
3866;DHT22;1948;53.250;10.412;2023-11-21T15:56:48;8.40;99.90
3866;DHT22;1948;53.250;10.412;2023-11-21T15:59:18;8.20;99.90
3866;DHT22;1948;53.250;10.412;2023-11-21T16:01:48;8.20;99.90
3866;DHT22;1948;53.250;10.412;2023-11-21T16:04:15;8.10;99.90
3866;DHT22;1948;53.250;10.412;2023-11-21T16:06:44;8.20;99.90
3866;DHT22;1948;53.250;10.412;2023-11-21T16:09:13;8.20;99.90
3866;DHT22;1948;53.250;10.412;2023-11-21T16:12:02;8.10;99.90
3866;DHT22;1948;53.250;10.412;2023-11-21T16:14:34;8.10;99.90
3866;DHT22;1948;53.250;10.412;2023-11-21T16:17:05;8.10;99.90
3866;DHT22;1948;53.250;10.412;2023-11-21T16:19:38;8.00;99.90
3866;DHT22;1948;53.250;10.412;2023-11-21T16:22:06;8.00;99.90
3866;DHT22;1948;53.250;10.412;2023-11-21T16:24:33;8.00;99.90
3866;DHT22;1948;53.250;10.412;2023-11-21T16:27:00;8.00;99.90
3866;DHT22;1948;53.250;10.412;2023-11-21T16:29:29;8.00;99.90
3866;DHT22;1948;53.250;10.412;2023-11-21T16:32:00;8.10;99.90
3866;DHT22;1948;53.250;10.412;2023-11-21T16:34:28;8.10;99.90
3866;DHT22;1948;53.250;10.412;2023-11-21T16:36:56;8.10;99.90